createdAt,value
2023-04-09T00:01:49.626Z,11.00
2023-04-09T00:04:17.457Z,10.23
2023-04-09T00:06:45.231Z,10.27
2023-04-09T00:09:12.988Z,10.10
2023-04-09T00:11:40.973Z,10.40
2023-04-09T00:14:08.786Z,10.40
2023-04-09T00:16:36.911Z,10.17
2023-04-09T00:19:11.057Z,10.57
2023-04-09T00:21:38.875Z,10.60
2023-04-09T00:24:10.505Z,10.70
2023-04-09T00:26:38.403Z,11.13
2023-04-09T00:29:06.359Z,11.27
2023-04-09T00:31:34.157Z,10.90
2023-04-09T00:34:01.927Z,10.57
2023-04-09T00:36:31.077Z,11.17
2023-04-09T00:38:58.957Z,10.33
2023-04-09T00:41:26.715Z,10.23
2023-04-09T00:43:57.296Z,10.10
2023-04-09T00:46:25.273Z,9.80
2023-04-09T00:48:53.256Z,10.23
2023-04-09T00:51:21.213Z,10.17
2023-04-09T00:53:50.460Z,10.60
2023-04-09T00:56:19.802Z,10.70
2023-04-09T00:58:47.610Z,10.80
2023-04-09T01:01:15.684Z,11.17
2023-04-09T01:03:43.859Z,10.17
2023-04-09T01:06:16.284Z,10.77
2023-04-09T01:08:56.947Z,10.07
2023-04-09T01:11:33.340Z,10.77
2023-04-09T01:14:08.123Z,9.87
2023-04-09T01:16:38.248Z,9.90
2023-04-09T01:19:34.071Z,10.50
2023-04-09T01:22:03.411Z,10.63
2023-04-09T01:24:42.723Z,10.17
2023-04-09T01:27:10.772Z,9.90
2023-04-09T01:29:42.820Z,10.10
2023-04-09T01:32:12.276Z,9.93
2023-04-09T01:34:41.012Z,9.57
2023-04-09T01:37:10.128Z,9.70
2023-04-09T01:39:39.027Z,9.37
2023-04-09T01:42:11.046Z,8.90
2023-04-09T01:44:41.981Z,9.07
2023-04-09T01:47:10.209Z,9.07
2023-04-09T01:49:39.509Z,9.10
2023-04-09T01:52:08.052Z,9.73
2023-04-09T01:54:35.948Z,8.90
2023-04-09T01:57:03.751Z,9.43
2023-04-09T01:59:31.755Z,10.27
2023-04-09T02:02:05.423Z,8.63
2023-04-09T02:04:36.721Z,9.73
2023-04-09T02:07:07.894Z,9.70
2023-04-09T02:09:38.496Z,10.27
2023-04-09T02:12:11.653Z,9.23
2023-04-09T02:14:41.451Z,9.40
2023-04-09T02:17:10.656Z,9.63
2023-04-09T02:19:45.262Z,9.43
2023-04-09T02:22:14.150Z,10.33
2023-04-09T02:24:42.190Z,10.47
2023-04-09T02:27:10.256Z,9.97
2023-04-09T02:29:38.220Z,10.50
2023-04-09T02:32:06.521Z,10.13
2023-04-09T02:34:35.570Z,10.20
2023-04-09T02:37:03.423Z,10.40
2023-04-09T02:39:31.156Z,9.57
2023-04-09T02:41:58.939Z,10.43
2023-04-09T02:44:26.785Z,11.23
2023-04-09T02:46:54.644Z,10.87
2023-04-09T02:49:22.514Z,10.00
2023-04-09T02:51:51.725Z,9.97
2023-04-09T02:54:19.498Z,10.70
2023-04-09T02:56:47.279Z,10.33
2023-04-09T02:59:15.073Z,10.83
2023-04-09T03:01:42.938Z,10.73
2023-04-09T03:04:10.788Z,9.87
2023-04-09T03:06:38.705Z,9.87
2023-04-09T03:09:07.793Z,10.60
2023-04-09T03:11:35.522Z,10.83
2023-04-09T03:14:03.256Z,10.73
2023-04-09T03:16:30.953Z,10.93
2023-04-09T03:18:58.719Z,10.73
2023-04-09T03:21:27.041Z,10.67
2023-04-09T03:23:54.955Z,11.77
2023-04-09T03:26:24.105Z,11.50
2023-04-09T03:28:52.027Z,11.93
2023-04-09T03:31:19.943Z,11.43
2023-04-09T03:33:47.774Z,12.03
2023-04-09T03:36:15.494Z,11.57
2023-04-09T03:38:43.296Z,11.70
2023-04-09T03:41:11.219Z,11.67
2023-04-09T03:43:40.453Z,12.47
2023-04-09T03:46:13.404Z,12.43
2023-04-09T03:48:41.318Z,11.73
2023-04-09T03:51:12.934Z,12.53
2023-04-09T03:53:41.015Z,11.63
2023-04-09T03:56:08.995Z,12.17
2023-04-09T03:58:37.058Z,11.93
2023-04-09T04:01:06.531Z,12.20
2023-04-09T04:03:34.557Z,11.60
2023-04-09T04:06:03.489Z,11.97
2023-04-09T04:08:31.525Z,12.30
2023-04-09T04:11:05.279Z,12.50
2023-04-09T04:13:33.143Z,12.30
2023-04-09T04:16:00.928Z,12.77
2023-04-09T04:18:30.067Z,12.47
2023-04-09T04:20:57.809Z,12.80
2023-04-09T04:23:25.673Z,12.67
2023-04-09T04:25:54.263Z,13.47
2023-04-09T04:28:21.947Z,12.80
2023-04-09T04:30:49.786Z,13.63
2023-04-09T04:33:17.490Z,12.43
2023-04-09T04:35:46.663Z,13.90
2023-04-09T04:38:14.431Z,13.17
2023-04-09T04:40:42.178Z,12.83
2023-04-09T04:43:09.990Z,13.40
2023-04-09T04:45:37.724Z,12.73
2023-04-09T04:48:05.703Z,13.37
2023-04-09T04:50:33.801Z,12.93
2023-04-09T04:53:02.932Z,12.90
2023-04-09T04:55:30.695Z,12.50
2023-04-09T04:57:58.494Z,11.93
2023-04-09T05:00:26.417Z,13.07
2023-04-09T05:02:54.579Z,12.87
2023-04-09T05:05:22.485Z,11.73
2023-04-09T05:07:50.395Z,12.57
2023-04-09T05:10:19.607Z,12.60
2023-04-09T05:12:47.440Z,12.37
2023-04-09T05:15:15.292Z,12.37
2023-04-09T05:17:43.892Z,13.00
2023-04-09T05:20:13.194Z,12.13
2023-04-09T05:22:40.939Z,12.87
2023-04-09T05:25:10.498Z,12.03
2023-04-09T05:27:39.636Z,12.43
2023-04-09T05:30:08.734Z,12.07
2023-04-09T05:32:36.629Z,13.10
2023-04-09T05:35:04.677Z,13.30
2023-04-09T05:37:32.521Z,12.27
2023-04-09T05:40:00.367Z,12.70
2023-04-09T05:42:28.103Z,12.43
2023-04-09T05:44:57.302Z,13.30
2023-04-09T05:47:25.176Z,12.13
2023-04-09T05:49:53.040Z,13.27
2023-04-09T05:52:21.503Z,12.83
2023-04-09T05:54:49.457Z,11.90
2023-04-09T05:57:17.171Z,12.87
2023-04-09T05:59:44.900Z,13.57
2023-04-09T06:02:14.137Z,12.33
2023-04-09T06:04:42.109Z,13.10
2023-04-09T06:07:10.013Z,12.00
2023-04-09T06:09:38.110Z,12.50
2023-04-09T06:12:05.830Z,11.80
2023-04-09T06:14:33.738Z,12.00
2023-04-09T06:17:01.611Z,13.03
2023-04-09T06:19:30.910Z,12.17
2023-04-09T06:21:58.792Z,12.23
2023-04-09T06:24:27.207Z,12.40
2023-04-09T06:26:54.934Z,12.53
2023-04-09T06:29:24.273Z,12.80
2023-04-09T06:31:52.261Z,13.00
2023-04-09T06:34:20.210Z,12.60
2023-04-09T06:36:49.423Z,12.53
2023-04-09T06:39:17.153Z,12.90
2023-04-09T06:41:44.920Z,12.47
2023-04-09T06:44:12.712Z,12.20
2023-04-09T06:46:40.666Z,13.03
2023-04-09T06:49:08.481Z,13.33
2023-04-09T06:51:36.334Z,13.27
2023-04-09T06:54:05.420Z,13.50
2023-04-09T06:56:33.245Z,12.90
2023-04-09T06:59:01.000Z,12.90
2023-04-09T07:01:29.080Z,13.20
2023-04-09T07:03:57.200Z,12.43
2023-04-09T07:06:25.452Z,14.23
2023-04-09T07:08:53.449Z,13.57
2023-04-09T07:11:22.706Z,12.87
2023-04-09T07:13:50.624Z,12.33
2023-04-09T07:16:18.523Z,13.80
2023-04-09T07:18:48.201Z,13.43
2023-04-09T07:21:16.318Z,12.43
2023-04-09T07:23:44.109Z,13.40
2023-04-09T07:26:11.893Z,13.33
2023-04-09T07:28:42.262Z,13.93
2023-04-09T07:31:10.889Z,14.30
2023-04-09T07:33:38.738Z,13.00
2023-04-09T07:36:06.793Z,13.70
2023-04-09T07:38:35.013Z,13.60
2023-04-09T07:41:02.767Z,16.07
2023-04-09T07:43:30.715Z,16.70
2023-04-09T07:46:00.256Z,15.67
2023-04-09T07:48:28.990Z,16.70
2023-04-09T07:50:56.789Z,16.30
2023-04-09T07:53:24.961Z,16.13
2023-04-09T07:55:52.918Z,14.80
2023-04-09T07:58:20.688Z,15.03
2023-04-09T08:00:49.596Z,17.07
2023-04-09T08:05:47.073Z,16.60
2023-04-09T08:08:14.915Z,17.00
2023-04-09T08:10:42.828Z,18.47
2023-04-09T08:13:11.946Z,17.80
2023-04-09T08:15:39.901Z,18.07
2023-04-09T08:18:07.865Z,16.60
2023-04-09T08:20:37.125Z,16.93
2023-04-09T08:23:04.927Z,18.17
2023-04-09T08:25:32.617Z,17.83
2023-04-09T08:28:00.474Z,17.80
2023-04-09T08:30:28.497Z,16.97
2023-04-09T08:32:56.384Z,18.03
2023-04-09T08:35:24.263Z,17.33
2023-04-09T08:37:53.402Z,16.57
2023-04-09T08:40:21.213Z,16.43
2023-04-09T08:42:54.877Z,16.60
2023-04-09T08:45:22.913Z,17.70
2023-04-09T08:47:52.852Z,16.43
2023-04-09T08:50:20.969Z,17.07
2023-04-09T08:52:50.336Z,17.50
2023-04-09T08:55:19.496Z,17.63
2023-04-09T08:57:47.265Z,17.63
2023-04-09T09:00:15.420Z,17.87
2023-04-09T09:03:05.374Z,18.13
2023-04-09T09:05:41.313Z,18.23
2023-04-09T09:08:11.031Z,17.77
2023-04-09T09:10:42.016Z,18.70
2023-04-09T09:13:21.291Z,18.80
2023-04-09T09:15:50.631Z,17.43
2023-04-09T09:18:19.634Z,16.63
2023-04-09T09:20:47.436Z,17.90
2023-04-09T09:23:15.497Z,18.67
2023-04-09T09:25:44.822Z,18.47
2023-04-09T09:28:13.761Z,18.50
2023-04-09T09:30:41.712Z,18.60
2023-04-09T09:33:10.760Z,19.53
2023-04-09T09:35:52.219Z,18.57
2023-04-09T09:38:20.102Z,16.73
2023-04-09T09:40:52.751Z,18.07
2023-04-09T09:43:20.736Z,18.07
2023-04-09T09:45:49.451Z,17.73
2023-04-09T09:48:17.456Z,17.90
2023-04-09T09:50:47.617Z,18.20
2023-04-09T09:53:18.652Z,18.33
2023-04-09T09:55:53.636Z,18.67
2023-04-09T09:58:28.842Z,18.77
2023-04-09T10:00:57.561Z,17.00
2023-04-09T10:03:28.122Z,18.20
2023-04-09T10:05:57.572Z,18.20
2023-04-09T10:08:25.539Z,19.10
2023-04-09T10:10:54.829Z,19.40
2023-04-09T10:13:29.727Z,18.87
2023-04-09T10:15:57.761Z,18.57
2023-04-09T10:18:26.407Z,19.07
2023-04-09T10:20:59.295Z,19.53
2023-04-09T10:23:35.189Z,20.63
2023-04-09T10:26:05.882Z,20.17
2023-04-09T10:28:33.905Z,18.73
2023-04-09T10:31:02.786Z,19.97
2023-04-09T10:33:30.569Z,18.27
2023-04-09T10:36:01.864Z,19.10
2023-04-09T10:38:37.254Z,20.33
2023-04-09T10:41:15.039Z,17.87
2023-04-09T10:43:43.573Z,19.10
2023-04-09T10:46:28.194Z,18.83
2023-04-09T10:49:13.631Z,19.77
2023-04-09T10:51:42.001Z,19.80
2023-04-09T10:54:48.705Z,19.57
2023-04-09T10:57:24.635Z,19.33
2023-04-09T10:59:54.218Z,19.60
2023-04-09T11:03:08.411Z,18.60
2023-04-09T11:05:38.302Z,19.97
2023-04-09T11:08:09.417Z,20.33
2023-04-09T11:10:37.704Z,19.80
2023-04-09T11:13:07.094Z,20.23
2023-04-09T11:15:36.941Z,20.37
2023-04-09T11:18:06.895Z,19.27
2023-04-09T11:20:35.749Z,20.10
2023-04-09T11:23:03.645Z,19.37
2023-04-09T11:25:32.963Z,19.17
2023-04-09T11:28:04.710Z,21.07
2023-04-09T11:30:35.024Z,20.47
2023-04-09T11:33:03.231Z,20.40
2023-04-09T11:35:31.379Z,20.57
2023-04-09T11:37:59.253Z,20.23
2023-04-09T11:40:29.617Z,19.67
2023-04-09T11:42:57.871Z,18.83
2023-04-09T11:45:28.397Z,19.70
2023-04-09T11:47:58.208Z,19.10
2023-04-09T11:50:26.453Z,19.43
2023-04-09T11:52:54.340Z,19.13
2023-04-09T11:55:26.419Z,18.87
2023-04-09T11:57:57.874Z,18.53
2023-04-09T12:00:26.184Z,18.17
2023-04-09T12:03:03.626Z,19.37
2023-04-09T12:05:33.622Z,18.13
2023-04-09T12:08:03.056Z,19.60
2023-04-09T12:10:33.893Z,18.60
2023-04-09T12:13:07.061Z,19.00
2023-04-09T12:15:36.240Z,17.67
2023-04-09T12:18:09.686Z,18.70
2023-04-09T12:20:39.646Z,18.63
2023-04-09T12:23:08.928Z,16.90
2023-04-09T12:25:38.793Z,16.87
2023-04-09T12:28:07.502Z,17.80
2023-04-09T12:30:36.452Z,18.50
2023-04-09T12:33:07.627Z,18.23
2023-04-09T12:35:38.011Z,18.97
2023-04-09T12:38:06.202Z,18.27
2023-04-09T12:40:34.273Z,16.87
2023-04-09T12:43:02.480Z,16.90
2023-04-09T12:45:31.559Z,16.33
2023-04-09T12:47:59.619Z,16.00
2023-04-09T12:50:29.006Z,16.00
2023-04-09T12:52:57.089Z,16.73
2023-04-09T12:55:24.872Z,16.10
2023-04-09T12:57:53.132Z,16.93
2023-04-09T13:00:21.171Z,15.37
2023-04-09T13:02:49.166Z,16.90
2023-04-09T13:05:17.049Z,15.47
2023-04-09T13:07:46.719Z,15.20
2023-04-09T13:10:17.181Z,16.27
2023-04-09T13:12:44.914Z,16.97
2023-04-09T13:15:13.126Z,15.63
2023-04-09T13:17:40.936Z,14.83
2023-04-09T13:20:09.978Z,15.03
2023-04-09T13:22:37.783Z,14.80
2023-04-09T13:25:07.546Z,15.37
2023-04-09T13:27:35.357Z,14.63
2023-04-09T13:30:03.867Z,16.53
2023-04-09T13:32:31.735Z,14.37
2023-04-09T13:34:59.467Z,15.20
2023-04-09T13:37:27.358Z,14.33
2023-04-09T13:39:55.090Z,14.33
2023-04-09T13:42:25.451Z,14.33
2023-04-09T13:44:53.705Z,14.37
2023-04-09T13:47:21.777Z,13.90
2023-04-09T13:49:51.432Z,14.17
2023-04-09T13:52:19.220Z,13.50
2023-04-09T13:54:47.188Z,13.70
2023-04-09T13:57:14.992Z,14.20
2023-04-09T13:59:44.072Z,13.70
2023-04-09T14:02:12.065Z,13.33
2023-04-09T14:04:40.102Z,13.27
2023-04-09T14:07:08.415Z,12.83
2023-04-09T14:09:36.474Z,12.97
2023-04-09T14:12:04.503Z,13.70
2023-04-09T14:14:32.621Z,12.87
2023-04-09T14:17:02.089Z,11.83
2023-04-09T14:19:29.898Z,12.33
2023-04-09T14:21:57.763Z,11.37
2023-04-09T14:24:26.788Z,12.47
2023-04-09T14:26:54.666Z,11.80
2023-04-09T14:29:22.948Z,12.03
2023-04-09T14:31:51.830Z,12.53
2023-04-09T14:34:21.122Z,11.50
2023-04-09T14:36:48.956Z,10.63
2023-04-09T14:39:16.720Z,10.40
2023-04-09T14:41:44.647Z,10.13
2023-04-09T14:44:12.404Z,9.70
2023-04-09T14:46:40.429Z,8.47
2023-04-09T14:49:08.227Z,9.07
2023-04-09T14:51:37.535Z,9.40
2023-04-09T14:54:05.510Z,8.77
2023-04-09T14:56:33.777Z,7.73
2023-04-09T14:59:01.544Z,8.87
2023-04-09T15:01:30.056Z,8.13
2023-04-09T15:03:58.753Z,8.73
2023-04-09T15:06:27.960Z,8.80
2023-04-09T15:08:57.160Z,8.50
2023-04-09T15:11:25.426Z,7.67
2023-04-09T15:13:53.518Z,7.73
2023-04-09T15:16:25.885Z,8.00
2023-04-09T15:18:56.056Z,8.27
2023-04-09T15:21:24.799Z,7.83
2023-04-09T15:23:53.206Z,7.30
2023-04-09T15:26:22.394Z,6.87
2023-04-09T15:28:50.393Z,8.60
2023-04-09T15:31:18.393Z,7.93
2023-04-09T15:33:47.126Z,7.93
2023-04-09T15:36:14.974Z,6.90
2023-04-09T15:38:42.981Z,7.67
2023-04-09T15:41:11.100Z,8.20
2023-04-09T15:43:40.290Z,7.20
2023-04-09T15:46:10.110Z,7.23
2023-04-09T15:48:38.278Z,8.30
2023-04-09T15:51:06.494Z,7.47
2023-04-09T15:53:34.730Z,8.00
2023-04-09T15:56:03.262Z,7.57
2023-04-09T15:58:31.391Z,7.33
2023-04-09T16:01:01.492Z,7.10
2023-04-09T16:03:29.417Z,7.10
2023-04-09T16:05:57.549Z,6.53
2023-04-09T16:08:26.943Z,6.90
2023-04-09T16:10:55.008Z,6.63
2023-04-09T16:13:22.836Z,6.83
2023-04-09T16:15:51.348Z,7.17
2023-04-09T16:18:20.577Z,7.23
2023-04-09T16:20:48.451Z,6.73
2023-04-09T16:23:16.434Z,5.93
2023-04-09T16:25:44.324Z,6.60
2023-04-09T16:28:12.121Z,6.50
2023-04-09T16:30:40.062Z,6.90
2023-04-09T16:33:08.701Z,5.97
2023-04-09T16:35:39.640Z,6.90
2023-04-09T16:38:07.937Z,6.83
2023-04-09T16:40:36.042Z,6.93
2023-04-09T16:43:03.958Z,6.67
2023-04-09T16:45:32.102Z,6.60
2023-04-09T16:48:00.064Z,6.33
2023-04-09T16:50:28.122Z,6.70
2023-04-09T16:52:57.366Z,6.70
2023-04-09T16:55:25.177Z,6.67
2023-04-09T16:57:52.922Z,6.47
2023-04-09T17:00:21.121Z,6.13
2023-04-09T17:02:49.672Z,6.60
2023-04-09T17:05:17.980Z,6.03
2023-04-09T17:07:46.023Z,6.47
2023-04-09T17:10:15.662Z,6.23
2023-04-09T17:12:43.649Z,6.60
2023-04-09T17:15:12.490Z,6.60
2023-04-09T17:17:40.428Z,5.73
2023-04-09T17:20:09.220Z,6.17
2023-04-09T17:22:37.007Z,6.53
2023-04-09T17:25:05.078Z,6.07
2023-04-09T17:27:34.253Z,6.33
2023-04-09T17:30:02.329Z,6.10
2023-04-09T17:32:30.239Z,6.10
2023-04-09T17:34:59.493Z,6.30
2023-04-09T17:37:29.615Z,5.67
2023-04-09T17:39:57.455Z,5.37
2023-04-09T17:42:28.869Z,5.33
2023-04-09T17:44:58.302Z,4.90
2023-04-09T17:47:26.140Z,5.20
2023-04-09T17:49:53.997Z,5.00
2023-04-09T17:52:22.476Z,5.23
2023-04-09T17:54:52.185Z,4.97
2023-04-09T17:57:20.038Z,5.07
2023-04-09T17:59:48.901Z,5.37
2023-04-09T18:02:18.311Z,5.17
2023-04-09T18:04:46.461Z,4.93
2023-04-09T18:07:14.408Z,5.30
2023-04-09T18:09:42.140Z,5.57
2023-04-09T18:12:09.880Z,5.33
2023-04-09T18:14:37.616Z,5.47
2023-04-09T18:17:05.617Z,5.37
2023-04-09T18:19:34.832Z,5.50
2023-04-09T18:22:02.697Z,5.47
2023-04-09T18:24:30.426Z,5.50
2023-04-09T18:26:58.245Z,5.30
2023-04-09T18:29:27.505Z,5.67
2023-04-09T18:31:56.068Z,5.90
2023-04-09T18:34:24.092Z,5.43
2023-04-09T18:36:53.622Z,5.20
2023-04-09T18:39:22.748Z,5.10
2023-04-09T18:41:50.488Z,6.03
2023-04-09T18:44:18.313Z,5.53
2023-04-09T18:46:46.769Z,5.40
2023-04-09T18:49:14.591Z,4.90
2023-04-09T18:51:42.602Z,5.53
2023-04-09T18:54:11.833Z,5.83
2023-04-09T18:56:39.660Z,6.03
2023-04-09T18:59:07.570Z,6.93
2023-04-09T19:01:35.655Z,5.63
2023-04-09T19:04:03.750Z,5.60
2023-04-09T19:06:33.225Z,6.37
2023-04-09T19:09:01.239Z,5.67
2023-04-09T19:11:30.530Z,6.53
2023-04-09T19:13:58.527Z,6.63
2023-04-09T19:16:26.415Z,6.73
2023-04-09T19:18:54.734Z,6.50
2023-04-09T19:21:23.127Z,5.97
2023-04-09T19:23:50.963Z,6.27
2023-04-09T19:26:19.342Z,6.60
2023-04-09T19:28:48.525Z,6.63
2023-04-09T19:31:17.193Z,6.07
2023-04-09T19:33:45.084Z,6.87
2023-04-09T19:36:14.075Z,7.00
2023-04-09T19:38:42.241Z,6.47
2023-04-09T19:41:10.018Z,6.17
2023-04-09T19:43:39.339Z,6.30
2023-04-09T19:46:09.715Z,6.03
2023-04-09T19:48:38.243Z,6.60
2023-04-09T19:51:06.800Z,6.30
2023-04-09T19:53:36.379Z,6.00
2023-04-09T19:56:04.301Z,6.73
2023-04-09T19:58:32.781Z,6.17
2023-04-09T20:01:01.714Z,6.20
2023-04-09T20:03:32.967Z,6.70
2023-04-09T20:06:01.019Z,6.13
2023-04-09T20:08:28.882Z,7.33
2023-04-09T20:10:56.760Z,6.90
2023-04-09T20:13:25.336Z,6.83
2023-04-09T20:15:53.251Z,6.27
2023-04-09T20:18:21.309Z,6.50
2023-04-09T20:20:51.050Z,6.53
2023-04-09T20:23:19.002Z,6.67
2023-04-09T20:25:46.961Z,6.13
2023-04-09T20:28:14.870Z,6.10
2023-04-09T20:30:43.223Z,6.57
2023-04-09T20:33:11.757Z,6.90
2023-04-09T20:35:39.630Z,6.87
2023-04-09T20:38:08.865Z,6.33
2023-04-09T20:40:37.429Z,6.93
2023-04-09T20:43:05.311Z,7.33
2023-04-09T20:45:33.155Z,6.33
2023-04-09T20:48:01.295Z,6.63
2023-04-09T20:50:29.647Z,6.47
2023-04-09T20:52:57.569Z,6.47
2023-04-09T20:55:27.118Z,6.27
2023-04-09T20:57:55.517Z,6.80
2023-04-09T21:00:24.720Z,6.93
2023-04-09T21:02:52.995Z,6.03
2023-04-09T21:05:23.948Z,6.40
2023-04-09T21:07:52.641Z,6.23
2023-04-09T21:10:20.901Z,6.20
2023-04-09T21:12:50.183Z,6.30
2023-04-09T21:15:18.051Z,5.67
2023-04-09T21:17:46.068Z,6.60
2023-04-09T21:20:15.160Z,5.93
2023-04-09T21:22:42.946Z,5.93
2023-04-09T21:25:12.656Z,6.63
2023-04-09T21:27:42.204Z,5.67
2023-04-09T21:30:12.272Z,6.30
2023-04-09T21:32:40.197Z,6.07
2023-04-09T21:35:08.765Z,6.80
2023-04-09T21:37:37.583Z,5.73
2023-04-09T21:40:06.290Z,6.37
2023-04-09T21:42:34.149Z,6.37
2023-04-09T21:45:02.523Z,5.93
2023-04-09T21:47:32.018Z,6.03
2023-04-09T21:49:59.955Z,6.03
2023-04-09T21:52:28.165Z,5.87
2023-04-09T21:54:55.936Z,6.27
2023-04-09T21:57:23.800Z,6.30
2023-04-09T21:59:51.697Z,6.00
2023-04-09T22:02:19.585Z,6.13
2023-04-09T22:04:49.064Z,5.83
2023-04-09T22:07:16.940Z,6.77
2023-04-09T22:09:44.806Z,5.90
2023-04-09T22:12:12.740Z,6.03
2023-04-09T22:14:41.901Z,6.30
2023-04-09T22:17:09.852Z,6.20
2023-04-09T22:19:37.602Z,6.23
2023-04-09T22:22:06.705Z,5.97
2023-04-09T22:24:34.383Z,6.33
2023-04-09T22:27:02.311Z,5.40
2023-04-09T22:29:30.647Z,5.90
2023-04-09T22:31:58.796Z,5.57
2023-04-09T22:34:27.172Z,6.13
2023-04-09T22:36:54.952Z,5.87
2023-04-09T22:39:24.131Z,6.43
2023-04-09T22:41:52.058Z,5.80
2023-04-09T22:44:19.988Z,6.10
2023-04-09T22:46:47.920Z,5.67
2023-04-09T22:49:15.870Z,5.43
2023-04-09T22:51:43.710Z,5.53
2023-04-09T22:54:11.445Z,5.87
2023-04-09T22:56:40.692Z,5.73
2023-04-09T22:59:08.513Z,5.47
2023-04-09T23:01:36.832Z,6.03
2023-04-09T23:04:04.715Z,5.60
2023-04-09T23:06:32.674Z,5.70
2023-04-09T23:09:00.493Z,5.90
2023-04-09T23:11:28.435Z,6.13
2023-04-09T23:13:57.564Z,5.63
2023-04-09T23:16:26.339Z,5.67
2023-04-09T23:18:54.761Z,5.47
2023-04-09T23:21:22.713Z,5.67
2023-04-09T23:23:50.475Z,5.50
2023-04-09T23:26:18.286Z,5.87
2023-04-09T23:28:46.083Z,5.47
2023-04-09T23:31:16.205Z,5.90
2023-04-09T23:33:44.042Z,5.50
2023-04-09T23:36:11.847Z,5.70
2023-04-09T23:38:40.579Z,6.03
2023-04-09T23:41:08.334Z,5.37
2023-04-09T23:43:36.244Z,5.50
2023-04-09T23:46:04.027Z,5.60
2023-04-09T23:48:33.206Z,5.63
2023-04-09T23:51:00.977Z,5.60
2023-04-09T23:53:28.831Z,5.77
2023-04-09T23:55:56.637Z,5.20
2023-04-09T23:58:24.715Z,5.70
